sensor_id;sensor_type;location;lat;lon;timestamp;temperature;humidity
1337;DHT22;662;48.814;9.318;2024-01-07T00:01:57;8.20;73.70
1337;DHT22;662;48.814;9.318;2024-01-07T00:04:22;8.10;73.70
1337;DHT22;662;48.814;9.318;2024-01-07T00:06:48;8.20;73.90
1337;DHT22;662;48.814;9.318;2024-01-07T00:09:14;8.20;73.90
1337;DHT22;662;48.814;9.318;2024-01-07T00:11:40;8.10;73.80
1337;DHT22;662;48.814;9.318;2024-01-07T00:14:06;8.20;73.90
1337;DHT22;662;48.814;9.318;2024-01-07T00:16:31;8.20;73.90
1337;DHT22;662;48.814;9.318;2024-01-07T00:18:57;8.20;73.90
1337;DHT22;662;48.814;9.318;2024-01-07T00:21:23;8.20;73.90
1337;DHT22;662;48.814;9.318;2024-01-07T00:23:49;8.20;73.80
1337;DHT22;662;48.814;9.318;2024-01-07T00:26:15;8.20;73.80
1337;DHT22;662;48.814;9.318;2024-01-07T00:28:41;8.20;73.70
1337;DHT22;662;48.814;9.318;2024-01-07T00:31:06;8.20;73.70
1337;DHT22;662;48.814;9.318;2024-01-07T00:33:35;8.20;73.70
1337;DHT22;662;48.814;9.318;2024-01-07T00:36:04;8.20;73.60
1337;DHT22;662;48.814;9.318;2024-01-07T00:38:29;8.20;73.60
1337;DHT22;662;48.814;9.318;2024-01-07T00:40:55;8.20;73.60
1337;DHT22;662;48.814;9.318;2024-01-07T00:43:20;8.30;73.70
1337;DHT22;662;48.814;9.318;2024-01-07T00:45:47;8.30;73.60
1337;DHT22;662;48.814;9.318;2024-01-07T00:48:14;8.20;73.40
1337;DHT22;662;48.814;9.318;2024-01-07T00:50:40;8.30;73.50
1337;DHT22;662;48.814;9.318;2024-01-07T00:53:06;8.30;73.40
1337;DHT22;662;48.814;9.318;2024-01-07T00:55:31;8.30;73.40
1337;DHT22;662;48.814;9.318;2024-01-07T00:58:01;8.30;73.30
1337;DHT22;662;48.814;9.318;2024-01-07T01:00:26;8.30;73.30
1337;DHT22;662;48.814;9.318;2024-01-07T01:02:53;8.30;73.30
1337;DHT22;662;48.814;9.318;2024-01-07T01:05:18;8.30;73.20
1337;DHT22;662;48.814;9.318;2024-01-07T01:07:44;8.40;73.30
1337;DHT22;662;48.814;9.318;2024-01-07T01:10:10;8.40;73.30
1337;DHT22;662;48.814;9.318;2024-01-07T01:12:36;8.40;73.30
1337;DHT22;662;48.814;9.318;2024-01-07T01:15:01;8.40;73.20
1337;DHT22;662;48.814;9.318;2024-01-07T01:17:27;8.40;73.20
1337;DHT22;662;48.814;9.318;2024-01-07T01:19:52;8.40;73.20
1337;DHT22;662;48.814;9.318;2024-01-07T01:22:18;8.40;73.10
1337;DHT22;662;48.814;9.318;2024-01-07T01:24:44;8.40;73.10
1337;DHT22;662;48.814;9.318;2024-01-07T01:27:12;8.40;73.10
1337;DHT22;662;48.814;9.318;2024-01-07T01:29:38;8.40;73.10
1337;DHT22;662;48.814;9.318;2024-01-07T01:32:05;8.40;73.00
1337;DHT22;662;48.814;9.318;2024-01-07T01:34:32;8.40;73.00
1337;DHT22;662;48.814;9.318;2024-01-07T01:36:57;8.40;73.70
1337;DHT22;662;48.814;9.318;2024-01-07T01:39:23;8.40;73.00
1337;DHT22;662;48.814;9.318;2024-01-07T01:41:48;8.40;73.10
1337;DHT22;662;48.814;9.318;2024-01-07T01:44:14;8.40;73.00
1337;DHT22;662;48.814;9.318;2024-01-07T01:46:40;8.40;72.90
1337;DHT22;662;48.814;9.318;2024-01-07T01:49:07;8.40;72.90
1337;DHT22;662;48.814;9.318;2024-01-07T01:51:33;8.40;72.90
1337;DHT22;662;48.814;9.318;2024-01-07T01:53:59;8.40;73.00
1337;DHT22;662;48.814;9.318;2024-01-07T01:56:27;8.40;72.90
1337;DHT22;662;48.814;9.318;2024-01-07T01:58:53;8.40;72.90
1337;DHT22;662;48.814;9.318;2024-01-07T02:01:19;8.40;72.90
1337;DHT22;662;48.814;9.318;2024-01-07T02:03:44;8.40;72.90
1337;DHT22;662;48.814;9.318;2024-01-07T02:06:10;8.40;72.90
1337;DHT22;662;48.814;9.318;2024-01-07T02:08:38;8.40;73.00
1337;DHT22;662;48.814;9.318;2024-01-07T02:11:17;8.40;72.90
1337;DHT22;662;48.814;9.318;2024-01-07T02:13:43;8.40;72.90
1337;DHT22;662;48.814;9.318;2024-01-07T02:16:09;8.40;72.90
1337;DHT22;662;48.814;9.318;2024-01-07T02:18:34;8.40;72.80
1337;DHT22;662;48.814;9.318;2024-01-07T02:21:00;8.40;72.80
1337;DHT22;662;48.814;9.318;2024-01-07T02:23:26;8.40;72.80
1337;DHT22;662;48.814;9.318;2024-01-07T02:25:51;8.40;72.80
1337;DHT22;662;48.814;9.318;2024-01-07T02:28:17;8.40;72.80
1337;DHT22;662;48.814;9.318;2024-01-07T02:30:42;8.40;72.80
1337;DHT22;662;48.814;9.318;2024-01-07T02:33:08;8.40;72.80
1337;DHT22;662;48.814;9.318;2024-01-07T02:35:34;8.40;72.90
1337;DHT22;662;48.814;9.318;2024-01-07T02:37:59;8.40;72.90
1337;DHT22;662;48.814;9.318;2024-01-07T02:40:25;8.40;72.90
1337;DHT22;662;48.814;9.318;2024-01-07T02:42:51;8.40;72.90
1337;DHT22;662;48.814;9.318;2024-01-07T02:45:17;8.40;73.00
1337;DHT22;662;48.814;9.318;2024-01-07T02:47:42;8.40;73.00
1337;DHT22;662;48.814;9.318;2024-01-07T02:50:08;8.40;73.00
1337;DHT22;662;48.814;9.318;2024-01-07T02:52:34;8.40;73.10
1337;DHT22;662;48.814;9.318;2024-01-07T02:54:59;8.40;73.00
1337;DHT22;662;48.814;9.318;2024-01-07T02:57:27;8.40;73.00
1337;DHT22;662;48.814;9.318;2024-01-07T02:59:52;8.40;73.00
1337;DHT22;662;48.814;9.318;2024-01-07T03:02:18;8.40;73.10
1337;DHT22;662;48.814;9.318;2024-01-07T03:04:44;8.30;73.00
1337;DHT22;662;48.814;9.318;2024-01-07T03:07:10;8.40;73.10
1337;DHT22;662;48.814;9.318;2024-01-07T03:09:35;8.30;73.00
1337;DHT22;662;48.814;9.318;2024-01-07T03:12:01;8.30;72.90
1337;DHT22;662;48.814;9.318;2024-01-07T03:14:26;8.40;73.00
1337;DHT22;662;48.814;9.318;2024-01-07T03:16:52;8.40;73.00
1337;DHT22;662;48.814;9.318;2024-01-07T03:19:18;8.30;72.80
1337;DHT22;662;48.814;9.318;2024-01-07T03:21:43;8.30;72.80
1337;DHT22;662;48.814;9.318;2024-01-07T03:24:10;8.30;72.80
1337;DHT22;662;48.814;9.318;2024-01-07T03:26:36;8.30;72.70
1337;DHT22;662;48.814;9.318;2024-01-07T03:29:02;8.30;72.80
1337;DHT22;662;48.814;9.318;2024-01-07T03:31:28;8.30;72.80
1337;DHT22;662;48.814;9.318;2024-01-07T03:33:54;8.20;72.70
1337;DHT22;662;48.814;9.318;2024-01-07T03:36:20;8.20;72.70
1337;DHT22;662;48.814;9.318;2024-01-07T03:38:46;8.20;72.70
1337;DHT22;662;48.814;9.318;2024-01-07T03:41:16;8.20;72.70
1337;DHT22;662;48.814;9.318;2024-01-07T03:43:43;8.20;72.70
1337;DHT22;662;48.814;9.318;2024-01-07T03:46:09;8.10;72.60
1337;DHT22;662;48.814;9.318;2024-01-07T03:48:34;8.10;72.60
1337;DHT22;662;48.814;9.318;2024-01-07T03:51:00;8.10;72.60
1337;DHT22;662;48.814;9.318;2024-01-07T03:53:26;8.10;72.60
1337;DHT22;662;48.814;9.318;2024-01-07T03:55:51;8.10;72.60
1337;DHT22;662;48.814;9.318;2024-01-07T03:58:17;8.10;72.60
1337;DHT22;662;48.814;9.318;2024-01-07T04:00:43;8.10;72.50
1337;DHT22;662;48.814;9.318;2024-01-07T04:03:08;8.10;72.40
1337;DHT22;662;48.814;9.318;2024-01-07T04:05:34;8.10;72.40
1337;DHT22;662;48.814;9.318;2024-01-07T04:08:02;8.10;72.30
1337;DHT22;662;48.814;9.318;2024-01-07T04:10:28;8.10;72.30
1337;DHT22;662;48.814;9.318;2024-01-07T04:12:54;8.10;72.30
1337;DHT22;662;48.814;9.318;2024-01-07T04:15:20;8.10;72.40
1337;DHT22;662;48.814;9.318;2024-01-07T04:17:45;8.10;72.30
1337;DHT22;662;48.814;9.318;2024-01-07T04:20:15;8.10;72.30
1337;DHT22;662;48.814;9.318;2024-01-07T04:22:40;8.10;72.30
1337;DHT22;662;48.814;9.318;2024-01-07T04:25:06;8.10;72.20
1337;DHT22;662;48.814;9.318;2024-01-07T04:27:37;8.10;72.20
1337;DHT22;662;48.814;9.318;2024-01-07T04:30:04;8.10;72.20
1337;DHT22;662;48.814;9.318;2024-01-07T04:32:30;8.10;72.20
1337;DHT22;662;48.814;9.318;2024-01-07T04:34:56;8.10;72.20
1337;DHT22;662;48.814;9.318;2024-01-07T04:37:23;8.10;72.20
1337;DHT22;662;48.814;9.318;2024-01-07T04:39:49;8.10;72.20
1337;DHT22;662;48.814;9.318;2024-01-07T04:42:15;8.00;72.00
1337;DHT22;662;48.814;9.318;2024-01-07T04:44:40;8.10;72.10
1337;DHT22;662;48.814;9.318;2024-01-07T04:47:40;8.00;71.80
1337;DHT22;662;48.814;9.318;2024-01-07T04:50:06;8.00;71.80
1337;DHT22;662;48.814;9.318;2024-01-07T04:52:32;8.00;71.80
1337;DHT22;662;48.814;9.318;2024-01-07T04:54:57;8.00;71.80
1337;DHT22;662;48.814;9.318;2024-01-07T04:57:23;8.00;71.90
1337;DHT22;662;48.814;9.318;2024-01-07T04:59:49;8.00;72.00
1337;DHT22;662;48.814;9.318;2024-01-07T05:02:15;8.00;71.90
1337;DHT22;662;48.814;9.318;2024-01-07T05:04:42;8.00;72.00
1337;DHT22;662;48.814;9.318;2024-01-07T05:07:08;8.00;72.00
1337;DHT22;662;48.814;9.318;2024-01-07T05:09:33;8.00;71.90
1337;DHT22;662;48.814;9.318;2024-01-07T05:11:59;8.00;72.00
1337;DHT22;662;48.814;9.318;2024-01-07T05:14:25;8.00;72.00
1337;DHT22;662;48.814;9.318;2024-01-07T05:16:53;8.00;72.00
1337;DHT22;662;48.814;9.318;2024-01-07T05:19:20;8.00;72.80
1337;DHT22;662;48.814;9.318;2024-01-07T05:21:45;8.00;72.10
1337;DHT22;662;48.814;9.318;2024-01-07T05:24:11;8.00;72.20
1337;DHT22;662;48.814;9.318;2024-01-07T05:26:41;8.00;72.30
1337;DHT22;662;48.814;9.318;2024-01-07T05:29:07;8.00;72.30
1337;DHT22;662;48.814;9.318;2024-01-07T05:31:33;7.90;72.10
1337;DHT22;662;48.814;9.318;2024-01-07T05:33:58;8.00;72.20
1337;DHT22;662;48.814;9.318;2024-01-07T05:36:24;8.00;72.30
1337;DHT22;662;48.814;9.318;2024-01-07T05:38:50;8.00;72.30
1337;DHT22;662;48.814;9.318;2024-01-07T05:41:15;8.00;72.30
1337;DHT22;662;48.814;9.318;2024-01-07T05:43:41;8.00;72.40
1337;DHT22;662;48.814;9.318;2024-01-07T05:46:06;8.00;72.40
1337;DHT22;662;48.814;9.318;2024-01-07T05:48:42;8.00;72.40
1337;DHT22;662;48.814;9.318;2024-01-07T05:51:09;8.00;72.50
1337;DHT22;662;48.814;9.318;2024-01-07T05:53:35;8.00;72.50
1337;DHT22;662;48.814;9.318;2024-01-07T05:56:00;8.00;72.50
1337;DHT22;662;48.814;9.318;2024-01-07T05:58:26;7.90;72.50
1337;DHT22;662;48.814;9.318;2024-01-07T06:00:52;7.90;73.30
1337;DHT22;662;48.814;9.318;2024-01-07T06:03:17;7.90;72.60
1337;DHT22;662;48.814;9.318;2024-01-07T06:05:43;7.90;72.70
1337;DHT22;662;48.814;9.318;2024-01-07T06:08:09;7.90;72.70
1337;DHT22;662;48.814;9.318;2024-01-07T06:10:35;7.90;72.80
1337;DHT22;662;48.814;9.318;2024-01-07T06:13:02;7.90;72.80
1337;DHT22;662;48.814;9.318;2024-01-07T06:15:29;7.90;72.90
1337;DHT22;662;48.814;9.318;2024-01-07T06:17:54;7.90;73.00
1337;DHT22;662;48.814;9.318;2024-01-07T06:20:21;7.90;73.00
1337;DHT22;662;48.814;9.318;2024-01-07T06:22:46;7.90;72.90
1337;DHT22;662;48.814;9.318;2024-01-07T06:25:12;7.90;73.00
1337;DHT22;662;48.814;9.318;2024-01-07T06:27:41;7.90;73.00
1337;DHT22;662;48.814;9.318;2024-01-07T06:30:07;7.90;73.10
1337;DHT22;662;48.814;9.318;2024-01-07T06:32:33;7.90;73.10
1337;DHT22;662;48.814;9.318;2024-01-07T06:34:59;7.90;73.00
1337;DHT22;662;48.814;9.318;2024-01-07T06:37:25;7.90;73.00
1337;DHT22;662;48.814;9.318;2024-01-07T06:39:54;7.90;73.00
1337;DHT22;662;48.814;9.318;2024-01-07T06:42:20;7.90;72.90
1337;DHT22;662;48.814;9.318;2024-01-07T06:44:46;7.90;72.90
1337;DHT22;662;48.814;9.318;2024-01-07T06:47:12;7.90;72.70
1337;DHT22;662;48.814;9.318;2024-01-07T06:49:37;7.90;72.70
1337;DHT22;662;48.814;9.318;2024-01-07T06:52:04;7.90;73.40
1337;DHT22;662;48.814;9.318;2024-01-07T06:54:30;7.90;72.60
1337;DHT22;662;48.814;9.318;2024-01-07T06:56:56;7.90;72.40
1337;DHT22;662;48.814;9.318;2024-01-07T06:59:22;7.80;72.20
1337;DHT22;662;48.814;9.318;2024-01-07T07:01:47;7.80;72.20
1337;DHT22;662;48.814;9.318;2024-01-07T07:04:13;7.80;72.20
1337;DHT22;662;48.814;9.318;2024-01-07T07:06:38;7.70;72.10
1337;DHT22;662;48.814;9.318;2024-01-07T07:09:04;7.70;72.00
1337;DHT22;662;48.814;9.318;2024-01-07T07:11:30;7.60;71.80
1337;DHT22;662;48.814;9.318;2024-01-07T07:13:55;7.60;71.70
1337;DHT22;662;48.814;9.318;2024-01-07T07:16:22;7.60;71.40
1337;DHT22;662;48.814;9.318;2024-01-07T07:18:48;7.50;71.00
1337;DHT22;662;48.814;9.318;2024-01-07T07:21:13;7.50;70.80
1337;DHT22;662;48.814;9.318;2024-01-07T07:23:39;7.40;70.60
1337;DHT22;662;48.814;9.318;2024-01-07T07:26:04;7.40;70.40
1337;DHT22;662;48.814;9.318;2024-01-07T07:28:30;7.30;70.20
1337;DHT22;662;48.814;9.318;2024-01-07T07:30:56;7.30;70.00
1337;DHT22;662;48.814;9.318;2024-01-07T07:33:21;7.20;69.90
1337;DHT22;662;48.814;9.318;2024-01-07T07:35:47;7.20;70.00
1337;DHT22;662;48.814;9.318;2024-01-07T07:38:12;7.20;70.10
1337;DHT22;662;48.814;9.318;2024-01-07T07:40:38;7.20;70.10
1337;DHT22;662;48.814;9.318;2024-01-07T07:43:04;7.20;70.10
1337;DHT22;662;48.814;9.318;2024-01-07T07:45:29;7.20;70.10
1337;DHT22;662;48.814;9.318;2024-01-07T07:47:55;7.20;70.10
1337;DHT22;662;48.814;9.318;2024-01-07T07:50:20;7.20;70.10
1337;DHT22;662;48.814;9.318;2024-01-07T07:52:47;7.20;70.10
1337;DHT22;662;48.814;9.318;2024-01-07T07:55:12;7.10;69.90
1337;DHT22;662;48.814;9.318;2024-01-07T07:57:38;7.10;69.80
1337;DHT22;662;48.814;9.318;2024-01-07T08:00:06;7.10;69.70
1337;DHT22;662;48.814;9.318;2024-01-07T08:02:32;7.00;69.60
1337;DHT22;662;48.814;9.318;2024-01-07T08:04:57;7.00;69.60
1337;DHT22;662;48.814;9.318;2024-01-07T08:07:23;7.00;69.60
1337;DHT22;662;48.814;9.318;2024-01-07T08:09:49;6.90;69.60
1337;DHT22;662;48.814;9.318;2024-01-07T08:12:14;6.80;69.00
1337;DHT22;662;48.814;9.318;2024-01-07T08:14:40;6.80;69.00
1337;DHT22;662;48.814;9.318;2024-01-07T08:17:09;6.80;68.90
1337;DHT22;662;48.814;9.318;2024-01-07T08:19:36;6.70;68.40
1337;DHT22;662;48.814;9.318;2024-01-07T08:22:01;6.70;68.00
1337;DHT22;662;48.814;9.318;2024-01-07T08:24:27;6.70;67.70
1337;DHT22;662;48.814;9.318;2024-01-07T08:26:53;6.70;67.50
1337;DHT22;662;48.814;9.318;2024-01-07T08:29:18;6.70;67.30
1337;DHT22;662;48.814;9.318;2024-01-07T08:31:44;6.70;67.20
1337;DHT22;662;48.814;9.318;2024-01-07T08:34:10;6.80;67.10
1337;DHT22;662;48.814;9.318;2024-01-07T08:36:35;6.80;66.80
1337;DHT22;662;48.814;9.318;2024-01-07T08:39:01;6.80;66.70
1337;DHT22;662;48.814;9.318;2024-01-07T08:41:27;6.80;66.60
1337;DHT22;662;48.814;9.318;2024-01-07T08:43:52;6.80;66.50
1337;DHT22;662;48.814;9.318;2024-01-07T08:46:21;6.70;66.20
1337;DHT22;662;48.814;9.318;2024-01-07T08:48:47;6.70;66.20
1337;DHT22;662;48.814;9.318;2024-01-07T08:51:12;6.70;66.30
1337;DHT22;662;48.814;9.318;2024-01-07T08:53:39;6.70;66.40
1337;DHT22;662;48.814;9.318;2024-01-07T08:56:06;6.60;66.30
1337;DHT22;662;48.814;9.318;2024-01-07T08:58:32;6.70;66.40
1337;DHT22;662;48.814;9.318;2024-01-07T09:00:58;6.60;66.40
1337;DHT22;662;48.814;9.318;2024-01-07T09:03:24;6.50;66.20
1337;DHT22;662;48.814;9.318;2024-01-07T09:05:49;6.50;66.30
1337;DHT22;662;48.814;9.318;2024-01-07T09:08:15;6.50;66.60
1337;DHT22;662;48.814;9.318;2024-01-07T09:10:41;6.50;66.60
1337;DHT22;662;48.814;9.318;2024-01-07T09:13:09;6.50;66.60
1337;DHT22;662;48.814;9.318;2024-01-07T09:15:35;6.40;66.50
1337;DHT22;662;48.814;9.318;2024-01-07T09:18:01;6.40;66.50
1337;DHT22;662;48.814;9.318;2024-01-07T09:20:27;6.40;66.50
1337;DHT22;662;48.814;9.318;2024-01-07T09:22:53;6.50;66.60
1337;DHT22;662;48.814;9.318;2024-01-07T09:25:19;6.50;66.40
1337;DHT22;662;48.814;9.318;2024-01-07T09:27:44;6.50;66.40
1337;DHT22;662;48.814;9.318;2024-01-07T09:30:10;6.50;66.20
1337;DHT22;662;48.814;9.318;2024-01-07T09:32:40;6.50;66.10
1337;DHT22;662;48.814;9.318;2024-01-07T09:35:06;6.50;66.20
1337;DHT22;662;48.814;9.318;2024-01-07T09:37:32;6.50;66.00
1337;DHT22;662;48.814;9.318;2024-01-07T09:40:02;6.50;65.90
1337;DHT22;662;48.814;9.318;2024-01-07T09:42:29;6.50;65.90
1337;DHT22;662;48.814;9.318;2024-01-07T09:44:56;6.50;65.70
1337;DHT22;662;48.814;9.318;2024-01-07T09:47:22;6.50;65.50
1337;DHT22;662;48.814;9.318;2024-01-07T09:49:49;6.50;65.40
1337;DHT22;662;48.814;9.318;2024-01-07T09:52:14;6.40;65.20
1337;DHT22;662;48.814;9.318;2024-01-07T09:54:41;6.40;65.00
1337;DHT22;662;48.814;9.318;2024-01-07T09:57:12;6.40;64.90
1337;DHT22;662;48.814;9.318;2024-01-07T09:59:37;6.40;64.80
1337;DHT22;662;48.814;9.318;2024-01-07T10:02:04;6.40;64.60
1337;DHT22;662;48.814;9.318;2024-01-07T10:04:30;6.30;64.00
1337;DHT22;662;48.814;9.318;2024-01-07T10:06:57;6.30;64.00
1337;DHT22;662;48.814;9.318;2024-01-07T10:09:23;6.30;64.00
1337;DHT22;662;48.814;9.318;2024-01-07T10:11:51;6.20;63.80
1337;DHT22;662;48.814;9.318;2024-01-07T10:14:16;6.20;63.80
1337;DHT22;662;48.814;9.318;2024-01-07T10:16:42;6.30;63.80
1337;DHT22;662;48.814;9.318;2024-01-07T10:19:08;6.20;63.70
1337;DHT22;662;48.814;9.318;2024-01-07T10:21:34;6.20;63.50
1337;DHT22;662;48.814;9.318;2024-01-07T10:24:09;6.10;63.20
1337;DHT22;662;48.814;9.318;2024-01-07T10:26:38;6.10;63.20
1337;DHT22;662;48.814;9.318;2024-01-07T10:29:04;6.10;63.40
1337;DHT22;662;48.814;9.318;2024-01-07T10:31:31;6.10;63.60
1337;DHT22;662;48.814;9.318;2024-01-07T10:33:56;6.00;63.50
1337;DHT22;662;48.814;9.318;2024-01-07T10:36:23;6.00;63.60
1337;DHT22;662;48.814;9.318;2024-01-07T10:38:50;6.00;63.50
1337;DHT22;662;48.814;9.318;2024-01-07T10:41:18;6.00;63.50
1337;DHT22;662;48.814;9.318;2024-01-07T10:43:47;6.00;63.50
1337;DHT22;662;48.814;9.318;2024-01-07T10:46:14;5.90;63.50
1337;DHT22;662;48.814;9.318;2024-01-07T10:48:59;6.00;63.50
1337;DHT22;662;48.814;9.318;2024-01-07T10:51:27;6.00;63.40
1337;DHT22;662;48.814;9.318;2024-01-07T10:53:53;6.00;63.50
1337;DHT22;662;48.814;9.318;2024-01-07T10:56:25;6.00;63.50
1337;DHT22;662;48.814;9.318;2024-01-07T10:58:54;6.00;63.50
1337;DHT22;662;48.814;9.318;2024-01-07T11:01:20;6.00;63.20
1337;DHT22;662;48.814;9.318;2024-01-07T11:03:57;6.00;63.00
1337;DHT22;662;48.814;9.318;2024-01-07T11:09:19;6.00;62.80
1337;DHT22;662;48.814;9.318;2024-01-07T11:11:45;6.00;62.60
1337;DHT22;662;48.814;9.318;2024-01-07T11:17:08;6.10;62.40
1337;DHT22;662;48.814;9.318;2024-01-07T11:19:38;6.00;62.00
1337;DHT22;662;48.814;9.318;2024-01-07T11:22:22;6.10;61.90
1337;DHT22;662;48.814;9.318;2024-01-07T11:24:54;6.00;61.80
1337;DHT22;662;48.814;9.318;2024-01-07T11:27:22;6.00;61.90
1337;DHT22;662;48.814;9.318;2024-01-07T11:30:05;6.00;61.80
1337;DHT22;662;48.814;9.318;2024-01-07T11:32:33;6.00;61.80
1337;DHT22;662;48.814;9.318;2024-01-07T11:35:00;6.00;61.90
1337;DHT22;662;48.814;9.318;2024-01-07T11:37:26;6.00;61.90
1337;DHT22;662;48.814;9.318;2024-01-07T11:39:57;6.00;61.80
1337;DHT22;662;48.814;9.318;2024-01-07T11:42:25;6.00;61.80
1337;DHT22;662;48.814;9.318;2024-01-07T11:44:55;6.00;61.90
1337;DHT22;662;48.814;9.318;2024-01-07T11:47:22;6.00;61.80
1337;DHT22;662;48.814;9.318;2024-01-07T11:49:48;6.00;61.50
1337;DHT22;662;48.814;9.318;2024-01-07T11:52:17;5.90;61.20
1337;DHT22;662;48.814;9.318;2024-01-07T11:54:43;5.90;61.30
1337;DHT22;662;48.814;9.318;2024-01-07T11:57:10;5.80;62.10
1337;DHT22;662;48.814;9.318;2024-01-07T11:59:36;5.80;61.40
1337;DHT22;662;48.814;9.318;2024-01-07T12:02:03;5.70;61.40
1337;DHT22;662;48.814;9.318;2024-01-07T12:04:32;5.70;61.40
1337;DHT22;662;48.814;9.318;2024-01-07T12:06:58;5.70;61.30
1337;DHT22;662;48.814;9.318;2024-01-07T12:09:27;5.60;61.40
1337;DHT22;662;48.814;9.318;2024-01-07T12:11:53;5.60;61.60
1337;DHT22;662;48.814;9.318;2024-01-07T12:14:21;5.50;61.70
1337;DHT22;662;48.814;9.318;2024-01-07T12:16:47;5.50;61.90
1337;DHT22;662;48.814;9.318;2024-01-07T12:19:13;5.50;62.10
1337;DHT22;662;48.814;9.318;2024-01-07T12:21:39;5.50;62.30
1337;DHT22;662;48.814;9.318;2024-01-07T12:24:05;5.50;62.40
1337;DHT22;662;48.814;9.318;2024-01-07T12:26:31;5.50;62.50
1337;DHT22;662;48.814;9.318;2024-01-07T12:29:00;5.50;62.60
1337;DHT22;662;48.814;9.318;2024-01-07T12:31:33;5.40;62.60
1337;DHT22;662;48.814;9.318;2024-01-07T12:33:59;5.50;62.70
1337;DHT22;662;48.814;9.318;2024-01-07T12:36:25;5.40;62.70
1337;DHT22;662;48.814;9.318;2024-01-07T12:38:52;5.40;62.80
1337;DHT22;662;48.814;9.318;2024-01-07T12:41:24;5.50;62.90
1337;DHT22;662;48.814;9.318;2024-01-07T12:43:50;5.50;62.90
1337;DHT22;662;48.814;9.318;2024-01-07T12:46:16;5.40;62.80
1337;DHT22;662;48.814;9.318;2024-01-07T12:48:41;5.40;62.80
1337;DHT22;662;48.814;9.318;2024-01-07T12:51:07;5.40;62.80
1337;DHT22;662;48.814;9.318;2024-01-07T12:53:33;5.40;62.80
1337;DHT22;662;48.814;9.318;2024-01-07T12:55:59;5.40;63.00
1337;DHT22;662;48.814;9.318;2024-01-07T12:58:25;5.40;62.80
1337;DHT22;662;48.814;9.318;2024-01-07T13:00:50;5.40;62.70
1337;DHT22;662;48.814;9.318;2024-01-07T13:03:16;5.40;62.80
1337;DHT22;662;48.814;9.318;2024-01-07T13:05:45;5.30;62.90
1337;DHT22;662;48.814;9.318;2024-01-07T13:08:12;5.40;62.90
1337;DHT22;662;48.814;9.318;2024-01-07T13:10:38;5.40;62.90
1337;DHT22;662;48.814;9.318;2024-01-07T13:13:04;5.30;62.70
1337;DHT22;662;48.814;9.318;2024-01-07T13:15:30;5.30;62.40
1337;DHT22;662;48.814;9.318;2024-01-07T13:17:55;5.30;62.30
1337;DHT22;662;48.814;9.318;2024-01-07T13:20:21;5.20;62.30
1337;DHT22;662;48.814;9.318;2024-01-07T13:22:47;5.20;62.30
1337;DHT22;662;48.814;9.318;2024-01-07T13:25:13;5.20;62.20
1337;DHT22;662;48.814;9.318;2024-01-07T13:27:38;5.20;62.00
1337;DHT22;662;48.814;9.318;2024-01-07T13:30:05;5.10;61.40
1337;DHT22;662;48.814;9.318;2024-01-07T13:32:31;5.10;61.30
1337;DHT22;662;48.814;9.318;2024-01-07T13:35:02;5.10;61.30
1337;DHT22;662;48.814;9.318;2024-01-07T13:37:28;5.10;61.50
1337;DHT22;662;48.814;9.318;2024-01-07T13:39:54;5.10;61.60
1337;DHT22;662;48.814;9.318;2024-01-07T13:42:22;5.20;61.60
1337;DHT22;662;48.814;9.318;2024-01-07T13:44:47;5.10;61.50
1337;DHT22;662;48.814;9.318;2024-01-07T13:47:13;5.10;61.40
1337;DHT22;662;48.814;9.318;2024-01-07T13:49:40;5.00;61.30
1337;DHT22;662;48.814;9.318;2024-01-07T13:52:06;5.00;61.20
1337;DHT22;662;48.814;9.318;2024-01-07T13:54:32;5.00;61.20
1337;DHT22;662;48.814;9.318;2024-01-07T13:56:57;4.90;61.20
1337;DHT22;662;48.814;9.318;2024-01-07T13:59:23;4.90;61.40
1337;DHT22;662;48.814;9.318;2024-01-07T14:01:49;4.80;61.50
1337;DHT22;662;48.814;9.318;2024-01-07T14:04:15;4.80;61.70
1337;DHT22;662;48.814;9.318;2024-01-07T14:06:40;4.70;61.90
1337;DHT22;662;48.814;9.318;2024-01-07T14:09:06;4.70;62.20
1337;DHT22;662;48.814;9.318;2024-01-07T14:11:34;4.70;62.40
1337;DHT22;662;48.814;9.318;2024-01-07T14:14:00;4.60;62.50
1337;DHT22;662;48.814;9.318;2024-01-07T14:16:27;4.60;62.70
1337;DHT22;662;48.814;9.318;2024-01-07T14:18:53;4.50;62.80
1337;DHT22;662;48.814;9.318;2024-01-07T14:21:21;4.40;63.00
1337;DHT22;662;48.814;9.318;2024-01-07T14:23:47;4.40;63.20
1337;DHT22;662;48.814;9.318;2024-01-07T14:26:13;4.30;63.40
1337;DHT22;662;48.814;9.318;2024-01-07T14:28:39;4.30;63.70
1337;DHT22;662;48.814;9.318;2024-01-07T14:31:05;4.20;64.00
1337;DHT22;662;48.814;9.318;2024-01-07T14:33:33;4.30;64.30
1337;DHT22;662;48.814;9.318;2024-01-07T14:35:58;4.20;64.40
1337;DHT22;662;48.814;9.318;2024-01-07T14:38:25;4.20;64.40
1337;DHT22;662;48.814;9.318;2024-01-07T14:40:51;4.20;64.60
1337;DHT22;662;48.814;9.318;2024-01-07T14:43:17;4.20;64.60
1337;DHT22;662;48.814;9.318;2024-01-07T14:45:43;4.20;64.70
1337;DHT22;662;48.814;9.318;2024-01-07T14:48:09;4.20;65.00
1337;DHT22;662;48.814;9.318;2024-01-07T14:50:35;4.20;65.10
1337;DHT22;662;48.814;9.318;2024-01-07T14:53:01;4.20;65.20
1337;DHT22;662;48.814;9.318;2024-01-07T14:55:26;4.30;65.40
1337;DHT22;662;48.814;9.318;2024-01-07T14:57:52;4.20;65.40
1337;DHT22;662;48.814;9.318;2024-01-07T15:00:18;4.30;65.50
1337;DHT22;662;48.814;9.318;2024-01-07T15:02:44;4.30;65.40
1337;DHT22;662;48.814;9.318;2024-01-07T15:05:09;4.30;65.50
1337;DHT22;662;48.814;9.318;2024-01-07T15:07:35;4.30;65.50
1337;DHT22;662;48.814;9.318;2024-01-07T15:10:00;4.30;65.60
1337;DHT22;662;48.814;9.318;2024-01-07T15:12:26;4.30;65.60
1337;DHT22;662;48.814;9.318;2024-01-07T15:15:04;4.30;65.80
1337;DHT22;662;48.814;9.318;2024-01-07T15:17:31;4.30;65.80
1337;DHT22;662;48.814;9.318;2024-01-07T15:19:57;4.30;65.80
1337;DHT22;662;48.814;9.318;2024-01-07T15:22:23;4.20;65.90
1337;DHT22;662;48.814;9.318;2024-01-07T15:24:49;4.20;65.90
1337;DHT22;662;48.814;9.318;2024-01-07T15:27:14;4.10;65.70
1337;DHT22;662;48.814;9.318;2024-01-07T15:29:40;4.00;65.80
1337;DHT22;662;48.814;9.318;2024-01-07T15:32:06;4.00;65.90
1337;DHT22;662;48.814;9.318;2024-01-07T15:34:32;4.00;66.00
1337;DHT22;662;48.814;9.318;2024-01-07T15:36:57;3.90;66.00
1337;DHT22;662;48.814;9.318;2024-01-07T15:39:23;3.90;66.30
1337;DHT22;662;48.814;9.318;2024-01-07T15:41:48;3.90;66.40
1337;DHT22;662;48.814;9.318;2024-01-07T15:44:14;3.80;66.40
1337;DHT22;662;48.814;9.318;2024-01-07T15:46:39;3.90;66.50
1337;DHT22;662;48.814;9.318;2024-01-07T15:49:05;3.90;66.60
1337;DHT22;662;48.814;9.318;2024-01-07T15:51:31;3.80;66.70
1337;DHT22;662;48.814;9.318;2024-01-07T15:53:56;3.80;66.80
1337;DHT22;662;48.814;9.318;2024-01-07T15:56:22;3.80;66.90
1337;DHT22;662;48.814;9.318;2024-01-07T15:58:48;3.80;67.00
1337;DHT22;662;48.814;9.318;2024-01-07T16:01:13;3.70;67.30
1337;DHT22;662;48.814;9.318;2024-01-07T16:03:39;3.70;67.30
1337;DHT22;662;48.814;9.318;2024-01-07T16:06:05;3.80;67.60
1337;DHT22;662;48.814;9.318;2024-01-07T16:08:31;3.80;67.80
1337;DHT22;662;48.814;9.318;2024-01-07T16:10:58;3.70;67.90
1337;DHT22;662;48.814;9.318;2024-01-07T16:13:24;3.70;67.90
1337;DHT22;662;48.814;9.318;2024-01-07T16:15:50;3.60;68.00
1337;DHT22;662;48.814;9.318;2024-01-07T16:18:16;3.60;68.20
1337;DHT22;662;48.814;9.318;2024-01-07T16:20:42;3.60;68.50
1337;DHT22;662;48.814;9.318;2024-01-07T16:23:09;3.50;68.50
1337;DHT22;662;48.814;9.318;2024-01-07T16:25:34;3.50;68.40
1337;DHT22;662;48.814;9.318;2024-01-07T16:28:00;3.50;68.30
1337;DHT22;662;48.814;9.318;2024-01-07T16:30:26;3.50;68.10
1337;DHT22;662;48.814;9.318;2024-01-07T16:32:52;3.40;67.90
1337;DHT22;662;48.814;9.318;2024-01-07T16:35:18;3.40;67.80